sensor_id;sensor_type;location;lat;lon;timestamp;temperature;humidity
75126;DHT22;63699;45.442;11.510;2022-12-26T00:01:54;20.90;70.20
75126;DHT22;63699;45.442;11.510;2022-12-26T00:04:20;20.90;69.90
75126;DHT22;63699;45.442;11.510;2022-12-26T00:06:46;20.90;70.30
75126;DHT22;63699;45.442;11.510;2022-12-26T00:09:12;20.90;70.20
75126;DHT22;63699;45.442;11.510;2022-12-26T00:11:38;20.90;70.30
75126;DHT22;63699;45.442;11.510;2022-12-26T00:14:09;20.90;70.30
75126;DHT22;63699;45.442;11.510;2022-12-26T00:16:36;20.90;70.40
75126;DHT22;63699;45.442;11.510;2022-12-26T00:19:03;20.90;70.10
75126;DHT22;63699;45.442;11.510;2022-12-26T00:21:29;20.80;70.20
75126;DHT22;63699;45.442;11.510;2022-12-26T00:23:56;20.90;70.20
75126;DHT22;63699;45.442;11.510;2022-12-26T00:26:24;20.90;70.30
75126;DHT22;63699;45.442;11.510;2022-12-26T00:28:51;20.90;70.40
75126;DHT22;63699;45.442;11.510;2022-12-26T00:31:20;20.90;70.30
75126;DHT22;63699;45.442;11.510;2022-12-26T00:33:46;20.80;70.20
75126;DHT22;63699;45.442;11.510;2022-12-26T00:36:14;20.80;70.20
75126;DHT22;63699;45.442;11.510;2022-12-26T00:38:43;20.80;70.30
75126;DHT22;63699;45.442;11.510;2022-12-26T00:41:10;20.80;70.10
75126;DHT22;63699;45.442;11.510;2022-12-26T00:43:36;20.80;70.20
75126;DHT22;63699;45.442;11.510;2022-12-26T00:46:02;20.80;70.40
75126;DHT22;63699;45.442;11.510;2022-12-26T00:48:28;20.80;70.40
75126;DHT22;63699;45.442;11.510;2022-12-26T00:50:54;20.80;70.30
75126;DHT22;63699;45.442;11.510;2022-12-26T00:53:21;20.80;70.30
75126;DHT22;63699;45.442;11.510;2022-12-26T00:55:46;20.80;70.40
75126;DHT22;63699;45.442;11.510;2022-12-26T00:58:13;20.80;70.40
75126;DHT22;63699;45.442;11.510;2022-12-26T01:00:38;20.80;70.40
75126;DHT22;63699;45.442;11.510;2022-12-26T01:03:06;20.80;70.30
75126;DHT22;63699;45.442;11.510;2022-12-26T01:05:33;20.80;70.40
75126;DHT22;63699;45.442;11.510;2022-12-26T01:07:58;20.80;70.40
75126;DHT22;63699;45.442;11.510;2022-12-26T01:10:24;20.70;70.20
75126;DHT22;63699;45.442;11.510;2022-12-26T01:12:50;20.70;70.40
75126;DHT22;63699;45.442;11.510;2022-12-26T01:15:15;20.70;70.40
75126;DHT22;63699;45.442;11.510;2022-12-26T01:17:41;20.70;70.40
75126;DHT22;63699;45.442;11.510;2022-12-26T01:20:07;20.70;70.40
75126;DHT22;63699;45.442;11.510;2022-12-26T01:22:33;20.70;70.40
75126;DHT22;63699;45.442;11.510;2022-12-26T01:24:58;20.70;70.30
75126;DHT22;63699;45.442;11.510;2022-12-26T01:27:24;20.70;70.50
75126;DHT22;63699;45.442;11.510;2022-12-26T01:29:51;20.70;70.50
75126;DHT22;63699;45.442;11.510;2022-12-26T01:32:17;20.70;70.40
75126;DHT22;63699;45.442;11.510;2022-12-26T01:34:43;20.70;70.40
75126;DHT22;63699;45.442;11.510;2022-12-26T01:37:14;20.70;70.30
75126;DHT22;63699;45.442;11.510;2022-12-26T01:39:40;20.70;70.40
75126;DHT22;63699;45.442;11.510;2022-12-26T01:42:14;20.70;70.50
75126;DHT22;63699;45.442;11.510;2022-12-26T01:47:23;20.70;70.50
75126;DHT22;63699;45.442;11.510;2022-12-26T01:49:52;20.70;70.40
75126;DHT22;63699;45.442;11.510;2022-12-26T01:52:29;20.70;70.40
75126;DHT22;63699;45.442;11.510;2022-12-26T01:54:57;20.70;70.50
75126;DHT22;63699;45.442;11.510;2022-12-26T01:57:29;20.70;70.60
75126;DHT22;63699;45.442;11.510;2022-12-26T01:59:57;20.60;70.40
75126;DHT22;63699;45.442;11.510;2022-12-26T02:02:25;20.70;70.60
75126;DHT22;63699;45.442;11.510;2022-12-26T02:04:52;20.60;70.60
75126;DHT22;63699;45.442;11.510;2022-12-26T02:07:39;20.60;70.60
75126;DHT22;63699;45.442;11.510;2022-12-26T02:10:12;20.60;70.60
75126;DHT22;63699;45.442;11.510;2022-12-26T02:12:39;20.60;70.60
75126;DHT22;63699;45.442;11.510;2022-12-26T02:15:09;20.70;70.80
75126;DHT22;63699;45.442;11.510;2022-12-26T02:17:36;20.60;70.80
75126;DHT22;63699;45.442;11.510;2022-12-26T02:26:15;20.70;70.80
75126;DHT22;63699;45.442;11.510;2022-12-26T02:29:19;20.70;71.00
75126;DHT22;63699;45.442;11.510;2022-12-26T02:40:26;20.70;70.90
75126;DHT22;63699;45.442;11.510;2022-12-26T02:42:57;20.70;70.90
75126;DHT22;63699;45.442;11.510;2022-12-26T02:48:40;20.70;71.20
75126;DHT22;63699;45.442;11.510;2022-12-26T02:51:27;20.70;70.70
75126;DHT22;63699;45.442;11.510;2022-12-26T02:54:39;20.80;70.80
75126;DHT22;63699;45.442;11.510;2022-12-26T02:57:34;20.70;70.70
75126;DHT22;63699;45.442;11.510;2022-12-26T03:00:33;20.70;70.70
75126;DHT22;63699;45.442;11.510;2022-12-26T03:03:24;20.80;70.70
75126;DHT22;63699;45.442;11.510;2022-12-26T03:06:24;20.80;70.80
75126;DHT22;63699;45.442;11.510;2022-12-26T03:09:23;20.80;70.70
75126;DHT22;63699;45.442;11.510;2022-12-26T03:15:20;20.80;70.60
75126;DHT22;63699;45.442;11.510;2022-12-26T03:17:50;20.80;70.70
75126;DHT22;63699;45.442;11.510;2022-12-26T03:20:26;20.80;70.70
75126;DHT22;63699;45.442;11.510;2022-12-26T03:22:59;20.80;70.60
75126;DHT22;63699;45.442;11.510;2022-12-26T03:28:24;20.80;70.60
75126;DHT22;63699;45.442;11.510;2022-12-26T03:30:51;20.80;70.60
75126;DHT22;63699;45.442;11.510;2022-12-26T03:33:29;20.80;70.50
75126;DHT22;63699;45.442;11.510;2022-12-26T03:39:23;20.80;70.50
75126;DHT22;63699;45.442;11.510;2022-12-26T03:42:33;20.80;70.50
75126;DHT22;63699;45.442;11.510;2022-12-26T03:45:28;20.80;70.60
75126;DHT22;63699;45.442;11.510;2022-12-26T03:48:36;20.80;70.50
75126;DHT22;63699;45.442;11.510;2022-12-26T03:51:43;20.80;70.50
75126;DHT22;63699;45.442;11.510;2022-12-26T03:54:33;20.80;70.40
75126;DHT22;63699;45.442;11.510;2022-12-26T03:57:20;20.80;70.50
75126;DHT22;63699;45.442;11.510;2022-12-26T04:00:09;20.80;71.10
75126;DHT22;63699;45.442;11.510;2022-12-26T04:02:59;20.80;70.50
75126;DHT22;63699;45.442;11.510;2022-12-26T04:05:47;20.80;70.50
75126;DHT22;63699;45.442;11.510;2022-12-26T04:08:46;20.80;70.40
75126;DHT22;63699;45.442;11.510;2022-12-26T04:11:34;20.80;70.50
75126;DHT22;63699;45.442;11.510;2022-12-26T04:14:42;20.80;70.40
75126;DHT22;63699;45.442;11.510;2022-12-26T04:26:36;20.80;70.50
75126;DHT22;63699;45.442;11.510;2022-12-26T04:29:22;20.80;70.40
75126;DHT22;63699;45.442;11.510;2022-12-26T04:38:28;20.80;70.40
75126;DHT22;63699;45.442;11.510;2022-12-26T04:41:13;20.80;70.40
75126;DHT22;63699;45.442;11.510;2022-12-26T04:44:01;20.80;70.40
75126;DHT22;63699;45.442;11.510;2022-12-26T04:46:40;20.80;70.40
75126;DHT22;63699;45.442;11.510;2022-12-26T04:49:11;20.80;70.40
75126;DHT22;63699;45.442;11.510;2022-12-26T04:51:57;20.80;70.30
75126;DHT22;63699;45.442;11.510;2022-12-26T04:54:24;20.80;70.40
75126;DHT22;63699;45.442;11.510;2022-12-26T04:56:50;20.80;70.30
75126;DHT22;63699;45.442;11.510;2022-12-26T04:59:16;20.80;70.40
75126;DHT22;63699;45.442;11.510;2022-12-26T05:01:42;20.80;70.40
75126;DHT22;63699;45.442;11.510;2022-12-26T05:04:26;20.80;70.40
75126;DHT22;63699;45.442;11.510;2022-12-26T05:07:23;20.80;70.40
75126;DHT22;63699;45.442;11.510;2022-12-26T05:10:15;20.80;70.30
75126;DHT22;63699;45.442;11.510;2022-12-26T05:12:42;20.80;70.30
75126;DHT22;63699;45.442;11.510;2022-12-26T05:15:08;20.80;70.40
75126;DHT22;63699;45.442;11.510;2022-12-26T05:17:34;20.80;70.30
75126;DHT22;63699;45.442;11.510;2022-12-26T05:20:18;20.80;70.30
75126;DHT22;63699;45.442;11.510;2022-12-26T05:23:03;20.80;70.40
75126;DHT22;63699;45.442;11.510;2022-12-26T05:25:48;20.80;70.40
75126;DHT22;63699;45.442;11.510;2022-12-26T05:28:32;20.80;70.40
75126;DHT22;63699;45.442;11.510;2022-12-26T05:31:11;20.80;70.30
75126;DHT22;63699;45.442;11.510;2022-12-26T05:33:38;20.80;70.30
75126;DHT22;63699;45.442;11.510;2022-12-26T05:36:27;20.80;70.30
75126;DHT22;63699;45.442;11.510;2022-12-26T05:38:53;20.80;70.30
75126;DHT22;63699;45.442;11.510;2022-12-26T05:41:21;20.80;70.30
75126;DHT22;63699;45.442;11.510;2022-12-26T05:43:47;20.80;70.30
75126;DHT22;63699;45.442;11.510;2022-12-26T05:46:12;20.80;70.20
75126;DHT22;63699;45.442;11.510;2022-12-26T05:48:38;20.80;70.30
75126;DHT22;63699;45.442;11.510;2022-12-26T05:51:03;20.80;70.30
75126;DHT22;63699;45.442;11.510;2022-12-26T05:53:30;20.80;70.70
75126;DHT22;63699;45.442;11.510;2022-12-26T05:56:09;20.80;70.40
75126;DHT22;63699;45.442;11.510;2022-12-26T05:58:35;20.80;70.40
75126;DHT22;63699;45.442;11.510;2022-12-26T06:01:06;20.80;70.40
75126;DHT22;63699;45.442;11.510;2022-12-26T06:03:32;20.80;70.40
75126;DHT22;63699;45.442;11.510;2022-12-26T06:05:58;20.80;70.40
75126;DHT22;63699;45.442;11.510;2022-12-26T06:08:24;20.80;70.30
75126;DHT22;63699;45.442;11.510;2022-12-26T06:10:49;20.80;70.30
75126;DHT22;63699;45.442;11.510;2022-12-26T06:13:15;20.80;70.30
75126;DHT22;63699;45.442;11.510;2022-12-26T06:15:40;20.80;70.30
75126;DHT22;63699;45.442;11.510;2022-12-26T06:18:06;20.80;70.30
75126;DHT22;63699;45.442;11.510;2022-12-26T06:20:31;20.80;70.30
75126;DHT22;63699;45.442;11.510;2022-12-26T06:22:57;20.80;70.30
75126;DHT22;63699;45.442;11.510;2022-12-26T06:25:22;20.80;70.20
75126;DHT22;63699;45.442;11.510;2022-12-26T06:27:48;20.90;70.30
75126;DHT22;63699;45.442;11.510;2022-12-26T06:30:14;20.90;70.30
75126;DHT22;63699;45.442;11.510;2022-12-26T06:32:39;20.90;70.30
75126;DHT22;63699;45.442;11.510;2022-12-26T06:35:05;20.90;70.30
75126;DHT22;63699;45.442;11.510;2022-12-26T06:37:32;20.90;70.20
75126;DHT22;63699;45.442;11.510;2022-12-26T06:39:57;20.90;70.20
75126;DHT22;63699;45.442;11.510;2022-12-26T06:42:23;20.90;70.20
75126;DHT22;63699;45.442;11.510;2022-12-26T06:44:49;20.90;70.20
75126;DHT22;63699;45.442;11.510;2022-12-26T06:47:15;20.90;70.20
75126;DHT22;63699;45.442;11.510;2022-12-26T06:49:40;20.90;70.20
75126;DHT22;63699;45.442;11.510;2022-12-26T06:52:06;20.90;70.20
75126;DHT22;63699;45.442;11.510;2022-12-26T06:54:32;20.90;70.10
75126;DHT22;63699;45.442;11.510;2022-12-26T06:56:59;20.90;70.10
75126;DHT22;63699;45.442;11.510;2022-12-26T06:59:25;20.90;70.10
75126;DHT22;63699;45.442;11.510;2022-12-26T07:01:50;20.90;70.10
75126;DHT22;63699;45.442;11.510;2022-12-26T07:04:16;20.90;70.10
75126;DHT22;63699;45.442;11.510;2022-12-26T07:06:42;20.90;70.10
75126;DHT22;63699;45.442;11.510;2022-12-26T07:09:10;20.90;70.00
75126;DHT22;63699;45.442;11.510;2022-12-26T07:11:40;20.90;70.00
75126;DHT22;63699;45.442;11.510;2022-12-26T07:14:06;20.90;70.00
75126;DHT22;63699;45.442;11.510;2022-12-26T07:16:36;21.00;70.10
75126;DHT22;63699;45.442;11.510;2022-12-26T07:19:03;20.90;70.60
75126;DHT22;63699;45.442;11.510;2022-12-26T07:21:29;20.90;70.00
75126;DHT22;63699;45.442;11.510;2022-12-26T07:23:55;20.90;70.00
75126;DHT22;63699;45.442;11.510;2022-12-26T07:26:22;21.00;70.10
75126;DHT22;63699;45.442;11.510;2022-12-26T07:28:52;21.00;70.10
75126;DHT22;63699;45.442;11.510;2022-12-26T07:31:18;21.00;70.10
75126;DHT22;63699;45.442;11.510;2022-12-26T07:33:48;20.90;70.00
75126;DHT22;63699;45.442;11.510;2022-12-26T07:36:14;21.00;70.00
75126;DHT22;63699;45.442;11.510;2022-12-26T07:38:40;20.90;69.90
75126;DHT22;63699;45.442;11.510;2022-12-26T07:41:06;21.00;70.00
75126;DHT22;63699;45.442;11.510;2022-12-26T07:43:50;21.00;70.00
75126;DHT22;63699;45.442;11.510;2022-12-26T07:46:16;20.90;69.90
75126;DHT22;63699;45.442;11.510;2022-12-26T07:48:42;21.00;69.90
75126;DHT22;63699;45.442;11.510;2022-12-26T07:51:07;21.00;69.90
75126;DHT22;63699;45.442;11.510;2022-12-26T07:53:33;21.00;69.90
75126;DHT22;63699;45.442;11.510;2022-12-26T07:55:59;21.00;69.90
75126;DHT22;63699;45.442;11.510;2022-12-26T07:58:25;21.00;69.90
75126;DHT22;63699;45.442;11.510;2022-12-26T08:00:50;21.00;69.90
75126;DHT22;63699;45.442;11.510;2022-12-26T08:03:16;21.00;69.80
75126;DHT22;63699;45.442;11.510;2022-12-26T08:05:49;21.00;69.90
75126;DHT22;63699;45.442;11.510;2022-12-26T08:08:16;21.00;69.90
75126;DHT22;63699;45.442;11.510;2022-12-26T08:10:41;21.00;69.80
75126;DHT22;63699;45.442;11.510;2022-12-26T08:13:07;21.00;69.80
75126;DHT22;63699;45.442;11.510;2022-12-26T08:15:33;21.10;69.90
75126;DHT22;63699;45.442;11.510;2022-12-26T08:18:02;21.10;69.80
75126;DHT22;63699;45.442;11.510;2022-12-26T08:20:27;21.00;69.80
75126;DHT22;63699;45.442;11.510;2022-12-26T08:22:53;21.10;69.80
75126;DHT22;63699;45.442;11.510;2022-12-26T08:25:18;21.10;69.70
75126;DHT22;63699;45.442;11.510;2022-12-26T08:27:44;21.10;69.70
75126;DHT22;63699;45.442;11.510;2022-12-26T08:30:10;21.10;69.70
75126;DHT22;63699;45.442;11.510;2022-12-26T08:32:36;21.10;69.70
75126;DHT22;63699;45.442;11.510;2022-12-26T08:35:01;21.00;68.00
75126;DHT22;63699;45.442;11.510;2022-12-26T08:37:27;21.00;67.10
75126;DHT22;63699;45.442;11.510;2022-12-26T08:39:53;20.90;67.70
75126;DHT22;63699;45.442;11.510;2022-12-26T08:42:20;20.90;68.00
75126;DHT22;63699;45.442;11.510;2022-12-26T08:44:45;20.90;68.50
75126;DHT22;63699;45.442;11.510;2022-12-26T08:47:11;20.90;68.80
75126;DHT22;63699;45.442;11.510;2022-12-26T08:49:37;20.90;69.00
75126;DHT22;63699;45.442;11.510;2022-12-26T08:52:03;20.90;69.20
75126;DHT22;63699;45.442;11.510;2022-12-26T08:54:29;21.00;69.30
75126;DHT22;63699;45.442;11.510;2022-12-26T08:56:55;21.00;69.30
75126;DHT22;63699;45.442;11.510;2022-12-26T08:59:21;20.90;69.40
75126;DHT22;63699;45.442;11.510;2022-12-26T09:01:46;21.00;69.60
75126;DHT22;63699;45.442;11.510;2022-12-26T09:04:12;21.00;69.70
75126;DHT22;63699;45.442;11.510;2022-12-26T09:06:38;21.00;69.90
75126;DHT22;63699;45.442;11.510;2022-12-26T09:09:06;21.00;69.80
75126;DHT22;63699;45.442;11.510;2022-12-26T09:11:32;21.00;69.90
75126;DHT22;63699;45.442;11.510;2022-12-26T09:14:00;21.00;69.90
75126;DHT22;63699;45.442;11.510;2022-12-26T09:16:29;21.10;70.00
75126;DHT22;63699;45.442;11.510;2022-12-26T09:18:57;21.10;70.00
75126;DHT22;63699;45.442;11.510;2022-12-26T09:21:24;21.10;70.80
75126;DHT22;63699;45.442;11.510;2022-12-26T09:23:53;21.10;70.40
75126;DHT22;63699;45.442;11.510;2022-12-26T09:26:20;21.10;70.10
75126;DHT22;63699;45.442;11.510;2022-12-26T09:28:46;21.10;70.20
75126;DHT22;63699;45.442;11.510;2022-12-26T09:31:14;21.10;70.40
75126;DHT22;63699;45.442;11.510;2022-12-26T09:33:41;21.20;70.30
75126;DHT22;63699;45.442;11.510;2022-12-26T09:36:11;21.10;70.20
75126;DHT22;63699;45.442;11.510;2022-12-26T09:38:38;21.20;70.40
75126;DHT22;63699;45.442;11.510;2022-12-26T09:49:26;21.30;71.30
75126;DHT22;63699;45.442;11.510;2022-12-26T09:51:56;21.30;70.90
75126;DHT22;63699;45.442;11.510;2022-12-26T09:54:59;21.30;70.80
75126;DHT22;63699;45.442;11.510;2022-12-26T10:00:03;21.30;71.10
75126;DHT22;63699;45.442;11.510;2022-12-26T10:02:30;21.40;70.70
75126;DHT22;63699;45.442;11.510;2022-12-26T10:04:56;21.40;70.80
75126;DHT22;63699;45.442;11.510;2022-12-26T10:17:52;21.30;64.40
75126;DHT22;63699;45.442;11.510;2022-12-26T10:20:27;21.10;58.10
75126;DHT22;63699;45.442;11.510;2022-12-26T10:26:14;20.90;65.80
75126;DHT22;63699;45.442;11.510;2022-12-26T10:28:48;21.00;67.50
75126;DHT22;63699;45.442;11.510;2022-12-26T10:31:29;21.00;68.40
75126;DHT22;63699;45.442;11.510;2022-12-26T10:36:40;21.10;68.00
75126;DHT22;63699;45.442;11.510;2022-12-26T10:41:57;21.20;68.60
75126;DHT22;63699;45.442;11.510;2022-12-26T10:44:25;21.20;68.70
75126;DHT22;63699;45.442;11.510;2022-12-26T10:49:43;21.20;69.20
75126;DHT22;63699;45.442;11.510;2022-12-26T10:52:09;21.20;69.10
75126;DHT22;63699;45.442;11.510;2022-12-26T10:54:36;21.20;69.20
75126;DHT22;63699;45.442;11.510;2022-12-26T10:57:02;21.20;69.30
75126;DHT22;63699;45.442;11.510;2022-12-26T10:59:42;21.20;69.70
75126;DHT22;63699;45.442;11.510;2022-12-26T11:02:24;21.20;70.00
75126;DHT22;63699;45.442;11.510;2022-12-26T11:05:09;21.20;70.20
75126;DHT22;63699;45.442;11.510;2022-12-26T11:07:37;21.20;70.20
75126;DHT22;63699;45.442;11.510;2022-12-26T11:10:16;21.20;70.50
75126;DHT22;63699;45.442;11.510;2022-12-26T11:12:46;21.20;69.80
75126;DHT22;63699;45.442;11.510;2022-12-26T11:15:22;21.10;69.70
75126;DHT22;63699;45.442;11.510;2022-12-26T11:17:50;21.10;70.00
75126;DHT22;63699;45.442;11.510;2022-12-26T11:22:43;21.00;70.10
75126;DHT22;63699;45.442;11.510;2022-12-26T11:27:42;21.00;70.40
75126;DHT22;63699;45.442;11.510;2022-12-26T11:35:48;21.00;70.50
75126;DHT22;63699;45.442;11.510;2022-12-26T11:38:17;21.00;70.50
75126;DHT22;63699;45.442;11.510;2022-12-26T11:40:59;21.00;70.70
75126;DHT22;63699;45.442;11.510;2022-12-26T11:43:44;21.00;70.80
75126;DHT22;63699;45.442;11.510;2022-12-26T11:46:10;21.00;70.70
75126;DHT22;63699;45.442;11.510;2022-12-26T11:48:37;20.90;70.70
75126;DHT22;63699;45.442;11.510;2022-12-26T11:51:03;21.00;70.80
75126;DHT22;63699;45.442;11.510;2022-12-26T11:53:29;21.00;70.80
75126;DHT22;63699;45.442;11.510;2022-12-26T11:55:59;21.00;70.80
75126;DHT22;63699;45.442;11.510;2022-12-26T11:58:29;20.90;70.70
75126;DHT22;63699;45.442;11.510;2022-12-26T12:03:40;20.90;70.80
75126;DHT22;63699;45.442;11.510;2022-12-26T12:14:29;20.90;70.80
75126;DHT22;63699;45.442;11.510;2022-12-26T12:17:02;20.90;70.90
75126;DHT22;63699;45.442;11.510;2022-12-26T12:20:16;20.90;70.80
75126;DHT22;63699;45.442;11.510;2022-12-26T12:39:15;20.90;70.90
75126;DHT22;63699;45.442;11.510;2022-12-26T12:50:41;21.00;71.00
75126;DHT22;63699;45.442;11.510;2022-12-26T12:53:34;21.00;71.00
75126;DHT22;63699;45.442;11.510;2022-12-26T13:02:03;20.90;71.00
75126;DHT22;63699;45.442;11.510;2022-12-26T13:04:38;20.90;71.00
75126;DHT22;63699;45.442;11.510;2022-12-26T13:07:11;20.90;71.10
75126;DHT22;63699;45.442;11.510;2022-12-26T13:09:45;20.90;71.00
75126;DHT22;63699;45.442;11.510;2022-12-26T13:12:20;20.90;71.10
75126;DHT22;63699;45.442;11.510;2022-12-26T13:14:51;20.90;71.10
75126;DHT22;63699;45.442;11.510;2022-12-26T13:17:32;20.90;71.10
75126;DHT22;63699;45.442;11.510;2022-12-26T13:20:11;20.90;71.10
75126;DHT22;63699;45.442;11.510;2022-12-26T13:22:41;20.90;71.10
75126;DHT22;63699;45.442;11.510;2022-12-26T13:25:31;20.90;71.00
75126;DHT22;63699;45.442;11.510;2022-12-26T13:28:02;20.90;71.00
75126;DHT22;63699;45.442;11.510;2022-12-26T13:30:37;21.00;71.00
75126;DHT22;63699;45.442;11.510;2022-12-26T13:33:04;20.90;71.00
75126;DHT22;63699;45.442;11.510;2022-12-26T13:35:56;20.90;70.90
75126;DHT22;63699;45.442;11.510;2022-12-26T13:38:23;20.90;71.00
75126;DHT22;63699;45.442;11.510;2022-12-26T13:41:00;20.90;71.00
75126;DHT22;63699;45.442;11.510;2022-12-26T14:00:03;21.00;70.60
75126;DHT22;63699;45.442;11.510;2022-12-26T14:05:32;21.10;70.70
75126;DHT22;63699;45.442;11.510;2022-12-26T14:08:37;21.10;70.70
75126;DHT22;63699;45.442;11.510;2022-12-26T14:11:20;21.10;70.80
75126;DHT22;63699;45.442;11.510;2022-12-26T14:22:20;21.10;70.80
75126;DHT22;63699;45.442;11.510;2022-12-26T14:36:03;21.10;70.80
75126;DHT22;63699;45.442;11.510;2022-12-26T14:44:59;21.20;70.70
75126;DHT22;63699;45.442;11.510;2022-12-26T14:47:46;21.20;70.80
75126;DHT22;63699;45.442;11.510;2022-12-26T14:58:36;21.20;71.00
75126;DHT22;63699;45.442;11.510;2022-12-26T15:03:45;21.30;70.90
75126;DHT22;63699;45.442;11.510;2022-12-26T15:14:44;21.30;71.20
75126;DHT22;63699;45.442;11.510;2022-12-26T15:34:21;21.30;71.20
75126;DHT22;63699;45.442;11.510;2022-12-26T15:37:23;21.30;71.10
75126;DHT22;63699;45.442;11.510;2022-12-26T15:42:50;21.30;71.20
75126;DHT22;63699;45.442;11.510;2022-12-26T15:51:12;21.30;71.10
75126;DHT22;63699;45.442;11.510;2022-12-26T15:59:39;21.50;71.90
75126;DHT22;63699;45.442;11.510;2022-12-26T16:02:34;21.50;71.90
75126;DHT22;63699;45.442;11.510;2022-12-26T16:10:33;21.50;72.80
75126;DHT22;63699;45.442;11.510;2022-12-26T16:15:55;21.60;72.90
75126;DHT22;63699;45.442;11.510;2022-12-26T16:18:28;21.60;72.60
75126;DHT22;63699;45.442;11.510;2022-12-26T16:20:57;21.60;72.90
75126;DHT22;63699;45.442;11.510;2022-12-26T16:23:44;21.60;72.20
75126;DHT22;63699;45.442;11.510;2022-12-26T16:26:27;21.60;72.30
75126;DHT22;63699;45.442;11.510;2022-12-26T16:28:54;21.60;72.40
75126;DHT22;63699;45.442;11.510;2022-12-26T16:31:25;21.70;72.10
75126;DHT22;63699;45.442;11.510;2022-12-26T16:33:53;21.70;72.50
75126;DHT22;63699;45.442;11.510;2022-12-26T16:36:25;21.70;71.90
75126;DHT22;63699;45.442;11.510;2022-12-26T16:38:51;21.80;72.30
75126;DHT22;63699;45.442;11.510;2022-12-26T16:41:24;21.80;71.70
75126;DHT22;63699;45.442;11.510;2022-12-26T16:43:51;21.70;71.60
75126;DHT22;63699;45.442;11.510;2022-12-26T16:46:19;21.70;71.80
75126;DHT22;63699;45.442;11.510;2022-12-26T16:48:54;21.70;72.00
75126;DHT22;63699;45.442;11.510;2022-12-26T16:59:24;21.60;72.10
75126;DHT22;63699;45.442;11.510;2022-12-26T17:01:58;21.60;72.10
75126;DHT22;63699;45.442;11.510;2022-12-26T17:04:27;21.60;72.10
75126;DHT22;63699;45.442;11.510;2022-12-26T17:06:56;21.60;72.40
75126;DHT22;63699;45.442;11.510;2022-12-26T17:09:26;21.60;72.20
75126;DHT22;63699;45.442;11.510;2022-12-26T17:11:59;21.50;72.30
75126;DHT22;63699;45.442;11.510;2022-12-26T17:14:30;21.60;72.20
75126;DHT22;63699;45.442;11.510;2022-12-26T17:19:44;21.60;72.20
75126;DHT22;63699;45.442;11.510;2022-12-26T17:30:40;21.50;72.00
75126;DHT22;63699;45.442;11.510;2022-12-26T17:33:18;21.50;72.60
75126;DHT22;63699;45.442;11.510;2022-12-26T17:36:04;21.60;72.70
75126;DHT22;63699;45.442;11.510;2022-12-26T17:38:32;21.60;72.30
75126;DHT22;63699;45.442;11.510;2022-12-26T17:41:03;21.70;72.20
75126;DHT22;63699;45.442;11.510;2022-12-26T17:43:31;21.70;72.80
75126;DHT22;63699;45.442;11.510;2022-12-26T17:45:57;21.70;72.10
75126;DHT22;63699;45.442;11.510;2022-12-26T17:48:23;21.70;72.10
75126;DHT22;63699;45.442;11.510;2022-12-26T17:50:56;21.80;72.10
75126;DHT22;63699;45.442;11.510;2022-12-26T17:53:28;21.80;72.10
75126;DHT22;63699;45.442;11.510;2022-12-26T17:55:57;21.80;71.90
75126;DHT22;63699;45.442;11.510;2022-12-26T17:58:23;21.90;72.00
75126;DHT22;63699;45.442;11.510;2022-12-26T18:00:49;21.90;71.80
75126;DHT22;63699;45.442;11.510;2022-12-26T18:03:16;21.90;71.90
75126;DHT22;63699;45.442;11.510;2022-12-26T18:05:42;22.00;72.00
75126;DHT22;63699;45.442;11.510;2022-12-26T18:08:28;22.00;71.60
75126;DHT22;63699;45.442;11.510;2022-12-26T18:10:55;22.00;71.70
75126;DHT22;63699;45.442;11.510;2022-12-26T18:13:21;22.00;71.80
75126;DHT22;63699;45.442;11.510;2022-12-26T18:15:47;22.10;71.70
75126;DHT22;63699;45.442;11.510;2022-12-26T18:18:22;22.10;71.60
75126;DHT22;63699;45.442;11.510;2022-12-26T18:20:48;22.10;71.40
75126;DHT22;63699;45.442;11.510;2022-12-26T18:23:14;22.10;71.30
75126;DHT22;63699;45.442;11.510;2022-12-26T18:25:40;22.10;71.30
75126;DHT22;63699;45.442;11.510;2022-12-26T18:28:12;22.10;71.20
75126;DHT22;63699;45.442;11.510;2022-12-26T18:30:38;22.10;71.20
75126;DHT22;63699;45.442;11.510;2022-12-26T18:33:03;22.10;71.20
75126;DHT22;63699;45.442;11.510;2022-12-26T18:35:29;22.10;71.40
75126;DHT22;63699;45.442;11.510;2022-12-26T18:37:55;22.00;71.40
75126;DHT22;63699;45.442;11.510;2022-12-26T18:40:42;22.10;71.10
75126;DHT22;63699;45.442;11.510;2022-12-26T18:43:08;22.10;71.20
75126;DHT22;63699;45.442;11.510;2022-12-26T18:45:37;22.10;71.50
75126;DHT22;63699;45.442;11.510;2022-12-26T18:48:04;22.10;71.40
75126;DHT22;63699;45.442;11.510;2022-12-26T18:50:31;22.10;71.00
75126;DHT22;63699;45.442;11.510;2022-12-26T18:52:57;22.10;72.20
75126;DHT22;63699;45.442;11.510;2022-12-26T18:55:24;22.20;71.20
75126;DHT22;63699;45.442;11.510;2022-12-26T18:57:50;22.10;71.00
75126;DHT22;63699;45.442;11.510;2022-12-26T19:00:17;22.00;71.10
75126;DHT22;63699;45.442;11.510;2022-12-26T19:02:44;22.00;71.40
75126;DHT22;63699;45.442;11.510;2022-12-26T19:05:18;21.90;71.70
75126;DHT22;63699;45.442;11.510;2022-12-26T19:07:44;21.80;71.80
75126;DHT22;63699;45.442;11.510;2022-12-26T19:10:13;21.80;72.00
75126;DHT22;63699;45.442;11.510;2022-12-26T19:12:39;21.70;72.10
75126;DHT22;63699;45.442;11.510;2022-12-26T19:15:05;21.70;72.20
75126;DHT22;63699;45.442;11.510;2022-12-26T19:17:31;21.70;72.30
75126;DHT22;63699;45.442;11.510;2022-12-26T19:19:57;21.70;72.40
75126;DHT22;63699;45.442;11.510;2022-12-26T19:22:23;21.70;72.30
75126;DHT22;63699;45.442;11.510;2022-12-26T19:24:49;21.70;72.20
75126;DHT22;63699;45.442;11.510;2022-12-26T19:27:14;21.70;72.00
75126;DHT22;63699;45.442;11.510;2022-12-26T19:29:40;21.70;72.40
75126;DHT22;63699;45.442;11.510;2022-12-26T19:32:06;21.70;73.70
75126;DHT22;63699;45.442;11.510;2022-12-26T19:34:31;21.70;73.30
75126;DHT22;63699;45.442;11.510;2022-12-26T19:36:57;21.70;73.10
75126;DHT22;63699;45.442;11.510;2022-12-26T19:39:22;21.70;73.00
75126;DHT22;63699;45.442;11.510;2022-12-26T19:41:48;21.80;73.40
75126;DHT22;63699;45.442;11.510;2022-12-26T19:44:13;21.90;73.20
75126;DHT22;63699;45.442;11.510;2022-12-26T19:46:39;21.90;72.70
75126;DHT22;63699;45.442;11.510;2022-12-26T19:49:05;21.80;71.90
75126;DHT22;63699;45.442;11.510;2022-12-26T19:51:30;21.80;72.10
75126;DHT22;63699;45.442;11.510;2022-12-26T19:53:56;21.80;72.10
75126;DHT22;63699;45.442;11.510;2022-12-26T19:56:24;21.80;72.00
75126;DHT22;63699;45.442;11.510;2022-12-26T19:58:51;21.80;72.10